sensor_id;sensor_type;location;lat;lon;timestamp;temperature;humidity
44775;DHT22;31340;51.402;0.016;2023-04-01T00:00:18;12.20;99.90
44775;DHT22;31340;51.402;0.016;2023-04-01T00:02:48;12.20;99.90
44775;DHT22;31340;51.402;0.016;2023-04-01T00:05:16;12.20;99.90
44775;DHT22;31340;51.402;0.016;2023-04-01T00:07:44;12.20;99.90
44775;DHT22;31340;51.402;0.016;2023-04-01T00:10:13;12.20;99.90
44775;DHT22;31340;51.402;0.016;2023-04-01T00:12:40;12.10;99.90
44775;DHT22;31340;51.402;0.016;2023-04-01T00:15:10;12.20;99.90
44775;DHT22;31340;51.402;0.016;2023-04-01T00:17:38;12.20;99.90
44775;DHT22;31340;51.402;0.016;2023-04-01T00:20:07;12.20;99.90
44775;DHT22;31340;51.402;0.016;2023-04-01T00:22:35;12.20;99.90
44775;DHT22;31340;51.402;0.016;2023-04-01T00:25:04;12.20;99.90
44775;DHT22;31340;51.402;0.016;2023-04-01T00:27:32;12.20;99.90
44775;DHT22;31340;51.402;0.016;2023-04-01T00:29:59;12.20;99.90
44775;DHT22;31340;51.402;0.016;2023-04-01T00:32:28;12.20;99.90
44775;DHT22;31340;51.402;0.016;2023-04-01T00:34:56;12.20;99.90
44775;DHT22;31340;51.402;0.016;2023-04-01T00:37:27;12.20;99.90
44775;DHT22;31340;51.402;0.016;2023-04-01T00:39:55;12.20;99.90
44775;DHT22;31340;51.402;0.016;2023-04-01T00:42:24;12.20;99.90
44775;DHT22;31340;51.402;0.016;2023-04-01T00:44:54;12.20;99.90
44775;DHT22;31340;51.402;0.016;2023-04-01T00:47:24;12.20;99.90
44775;DHT22;31340;51.402;0.016;2023-04-01T00:49:54;12.10;99.90
44775;DHT22;31340;51.402;0.016;2023-04-01T00:52:23;12.10;99.90
44775;DHT22;31340;51.402;0.016;2023-04-01T00:54:55;12.10;99.90
44775;DHT22;31340;51.402;0.016;2023-04-01T00:57:37;12.10;99.90
44775;DHT22;31340;51.402;0.016;2023-04-01T01:00:10;12.10;99.90
44775;DHT22;31340;51.402;0.016;2023-04-01T01:02:45;12.10;99.90
44775;DHT22;31340;51.402;0.016;2023-04-01T01:05:14;12.10;99.90
44775;DHT22;31340;51.402;0.016;2023-04-01T01:08:12;12.10;99.90
44775;DHT22;31340;51.402;0.016;2023-04-01T01:10:43;12.10;99.90
44775;DHT22;31340;51.402;0.016;2023-04-01T01:16:05;12.10;99.90
44775;DHT22;31340;51.402;0.016;2023-04-01T01:26:44;12.10;99.90
44775;DHT22;31340;51.402;0.016;2023-04-01T01:32:18;12.00;99.90
44775;DHT22;31340;51.402;0.016;2023-04-01T01:37:20;12.00;99.90
44775;DHT22;31340;51.402;0.016;2023-04-01T01:39:58;12.00;99.90
44775;DHT22;31340;51.402;0.016;2023-04-01T01:42:27;12.00;99.90
44775;DHT22;31340;51.402;0.016;2023-04-01T01:44:57;12.00;99.90
44775;DHT22;31340;51.402;0.016;2023-04-01T01:47:27;12.00;99.90
44775;DHT22;31340;51.402;0.016;2023-04-01T01:49:56;12.00;99.90
44775;DHT22;31340;51.402;0.016;2023-04-01T01:52:26;11.90;99.90
44775;DHT22;31340;51.402;0.016;2023-04-01T01:54:57;11.90;99.90
44775;DHT22;31340;51.402;0.016;2023-04-01T01:57:36;11.90;99.90
44775;DHT22;31340;51.402;0.016;2023-04-01T02:00:11;11.90;99.90
44775;DHT22;31340;51.402;0.016;2023-04-01T02:02:46;11.90;99.90
44775;DHT22;31340;51.402;0.016;2023-04-01T02:05:19;11.90;99.90
44775;DHT22;31340;51.402;0.016;2023-04-01T02:07:55;11.90;99.90
44775;DHT22;31340;51.402;0.016;2023-04-01T02:10:26;11.90;99.90
44775;DHT22;31340;51.402;0.016;2023-04-01T02:12:59;11.90;99.90
44775;DHT22;31340;51.402;0.016;2023-04-01T02:15:31;11.80;99.90
44775;DHT22;31340;51.402;0.016;2023-04-01T02:18:02;11.80;99.90
44775;DHT22;31340;51.402;0.016;2023-04-01T02:20:31;11.80;99.90
44775;DHT22;31340;51.402;0.016;2023-04-01T02:22:59;11.80;99.90
44775;DHT22;31340;51.402;0.016;2023-04-01T02:25:30;11.80;99.90
44775;DHT22;31340;51.402;0.016;2023-04-01T02:28:02;11.80;99.90
44775;DHT22;31340;51.402;0.016;2023-04-01T02:30:34;11.80;99.90
44775;DHT22;31340;51.402;0.016;2023-04-01T02:33:04;11.70;99.90
44775;DHT22;31340;51.402;0.016;2023-04-01T02:35:35;11.70;99.90
44775;DHT22;31340;51.402;0.016;2023-04-01T02:38:04;11.70;99.90
44775;DHT22;31340;51.402;0.016;2023-04-01T02:40:47;11.70;99.90
44775;DHT22;31340;51.402;0.016;2023-04-01T02:43:15;11.70;99.90
44775;DHT22;31340;51.402;0.016;2023-04-01T02:45:43;11.70;99.90
44775;DHT22;31340;51.402;0.016;2023-04-01T02:48:11;11.60;99.90
44775;DHT22;31340;51.402;0.016;2023-04-01T02:50:40;11.60;99.90
44775;DHT22;31340;51.402;0.016;2023-04-01T02:53:08;11.60;99.90
44775;DHT22;31340;51.402;0.016;2023-04-01T02:55:36;11.60;99.90
44775;DHT22;31340;51.402;0.016;2023-04-01T02:58:04;11.60;99.90
44775;DHT22;31340;51.402;0.016;2023-04-01T03:00:32;11.60;99.90
44775;DHT22;31340;51.402;0.016;2023-04-01T03:03:00;11.60;99.90
44775;DHT22;31340;51.402;0.016;2023-04-01T03:05:28;11.60;99.90
44775;DHT22;31340;51.402;0.016;2023-04-01T03:07:56;11.60;99.90
44775;DHT22;31340;51.402;0.016;2023-04-01T03:10:24;11.60;99.90
44775;DHT22;31340;51.402;0.016;2023-04-01T03:12:52;11.60;99.90
44775;DHT22;31340;51.402;0.016;2023-04-01T03:15:19;11.60;99.90
44775;DHT22;31340;51.402;0.016;2023-04-01T03:17:47;11.60;99.90
44775;DHT22;31340;51.402;0.016;2023-04-01T03:20:15;11.60;99.90
44775;DHT22;31340;51.402;0.016;2023-04-01T03:22:43;11.60;99.90
44775;DHT22;31340;51.402;0.016;2023-04-01T03:25:11;11.60;99.90
44775;DHT22;31340;51.402;0.016;2023-04-01T03:27:39;11.60;99.90
44775;DHT22;31340;51.402;0.016;2023-04-01T03:30:08;11.60;99.90
44775;DHT22;31340;51.402;0.016;2023-04-01T03:32:45;11.60;99.90
44775;DHT22;31340;51.402;0.016;2023-04-01T03:35:13;11.60;99.90
44775;DHT22;31340;51.402;0.016;2023-04-01T03:37:41;11.50;99.90
44775;DHT22;31340;51.402;0.016;2023-04-01T03:40:10;11.50;99.90
44775;DHT22;31340;51.402;0.016;2023-04-01T03:42:38;11.50;99.90
44775;DHT22;31340;51.402;0.016;2023-04-01T03:45:06;11.50;99.90
44775;DHT22;31340;51.402;0.016;2023-04-01T03:47:33;11.50;99.90
44775;DHT22;31340;51.402;0.016;2023-04-01T03:50:02;11.50;99.90
44775;DHT22;31340;51.402;0.016;2023-04-01T03:52:30;11.50;99.90
44775;DHT22;31340;51.402;0.016;2023-04-01T03:54:58;11.50;99.90
44775;DHT22;31340;51.402;0.016;2023-04-01T03:57:25;11.50;99.90
44775;DHT22;31340;51.402;0.016;2023-04-01T03:59:57;11.50;99.90
44775;DHT22;31340;51.402;0.016;2023-04-01T04:02:25;11.50;99.90
44775;DHT22;31340;51.402;0.016;2023-04-01T04:04:53;11.50;99.90
44775;DHT22;31340;51.402;0.016;2023-04-01T04:07:20;11.50;99.90
44775;DHT22;31340;51.402;0.016;2023-04-01T04:10:04;11.50;99.90
44775;DHT22;31340;51.402;0.016;2023-04-01T04:12:32;11.50;99.90
44775;DHT22;31340;51.402;0.016;2023-04-01T04:15:00;11.50;99.90
44775;DHT22;31340;51.402;0.016;2023-04-01T04:17:28;11.50;99.90
44775;DHT22;31340;51.402;0.016;2023-04-01T04:19:56;11.50;99.90
44775;DHT22;31340;51.402;0.016;2023-04-01T04:22:24;11.50;99.90
44775;DHT22;31340;51.402;0.016;2023-04-01T04:24:51;11.40;99.90
44775;DHT22;31340;51.402;0.016;2023-04-01T04:27:19;11.50;99.90
44775;DHT22;31340;51.402;0.016;2023-04-01T04:30:02;11.50;99.90
44775;DHT22;31340;51.402;0.016;2023-04-01T04:32:30;11.40;99.90
44775;DHT22;31340;51.402;0.016;2023-04-01T04:34:58;11.40;99.90
44775;DHT22;31340;51.402;0.016;2023-04-01T04:37:25;11.40;99.90
44775;DHT22;31340;51.402;0.016;2023-04-01T04:39:53;11.40;99.90
44775;DHT22;31340;51.402;0.016;2023-04-01T04:42:21;11.40;99.90
44775;DHT22;31340;51.402;0.016;2023-04-01T04:44:52;11.40;99.90
44775;DHT22;31340;51.402;0.016;2023-04-01T04:47:20;11.40;99.90
44775;DHT22;31340;51.402;0.016;2023-04-01T04:49:48;11.40;99.90
44775;DHT22;31340;51.402;0.016;2023-04-01T04:52:15;11.40;99.90
44775;DHT22;31340;51.402;0.016;2023-04-01T04:54:43;11.30;99.90
44775;DHT22;31340;51.402;0.016;2023-04-01T04:57:11;11.40;99.90
44775;DHT22;31340;51.402;0.016;2023-04-01T04:59:45;11.30;99.90
44775;DHT22;31340;51.402;0.016;2023-04-01T05:02:23;11.30;99.90
44775;DHT22;31340;51.402;0.016;2023-04-01T05:04:50;11.30;99.90
44775;DHT22;31340;51.402;0.016;2023-04-01T05:07:18;11.30;99.90
44775;DHT22;31340;51.402;0.016;2023-04-01T05:09:47;11.30;99.90
44775;DHT22;31340;51.402;0.016;2023-04-01T05:12:15;11.30;99.90
44775;DHT22;31340;51.402;0.016;2023-04-01T05:15:00;11.30;99.90
44775;DHT22;31340;51.402;0.016;2023-04-01T05:17:28;11.30;99.90
44775;DHT22;31340;51.402;0.016;2023-04-01T05:19:56;11.30;99.90
44775;DHT22;31340;51.402;0.016;2023-04-01T05:22:24;11.30;99.90
44775;DHT22;31340;51.402;0.016;2023-04-01T05:24:52;11.30;99.90
44775;DHT22;31340;51.402;0.016;2023-04-01T05:27:20;11.20;99.90
44775;DHT22;31340;51.402;0.016;2023-04-01T05:29:48;11.20;99.90
44775;DHT22;31340;51.402;0.016;2023-04-01T05:32:34;11.20;99.90
44775;DHT22;31340;51.402;0.016;2023-04-01T05:35:01;11.20;99.90
44775;DHT22;31340;51.402;0.016;2023-04-01T05:37:29;11.20;99.90
44775;DHT22;31340;51.402;0.016;2023-04-01T05:39:56;11.20;99.90
44775;DHT22;31340;51.402;0.016;2023-04-01T05:42:26;11.20;99.90
44775;DHT22;31340;51.402;0.016;2023-04-01T05:44:53;11.20;99.90
44775;DHT22;31340;51.402;0.016;2023-04-01T05:48:01;11.20;99.90
44775;DHT22;31340;51.402;0.016;2023-04-01T05:50:32;11.20;99.90
44775;DHT22;31340;51.402;0.016;2023-04-01T05:53:01;11.20;99.90
44775;DHT22;31340;51.402;0.016;2023-04-01T05:55:28;11.20;99.90
44775;DHT22;31340;51.402;0.016;2023-04-01T05:57:56;11.10;99.90
44775;DHT22;31340;51.402;0.016;2023-04-01T06:00:24;11.20;99.90
44775;DHT22;31340;51.402;0.016;2023-04-01T06:02:52;11.10;99.90
44775;DHT22;31340;51.402;0.016;2023-04-01T06:05:22;11.20;99.90
44775;DHT22;31340;51.402;0.016;2023-04-01T06:07:57;11.20;99.90
44775;DHT22;31340;51.402;0.016;2023-04-01T06:16:07;11.20;99.90
44775;DHT22;31340;51.402;0.016;2023-04-01T06:22:08;11.20;99.90
44775;DHT22;31340;51.402;0.016;2023-04-01T06:28:13;11.10;99.90
44775;DHT22;31340;51.402;0.016;2023-04-01T06:30:52;11.20;99.90
44775;DHT22;31340;51.402;0.016;2023-04-01T06:36:33;11.20;99.90
44775;DHT22;31340;51.402;0.016;2023-04-01T06:51:34;11.20;99.90
44775;DHT22;31340;51.402;0.016;2023-04-01T06:54:34;11.20;99.90
44775;DHT22;31340;51.402;0.016;2023-04-01T07:00:01;11.20;99.90
44775;DHT22;31340;51.402;0.016;2023-04-01T07:02:39;11.20;99.90
44775;DHT22;31340;51.402;0.016;2023-04-01T07:05:11;11.20;99.90
44775;DHT22;31340;51.402;0.016;2023-04-01T07:07:48;11.20;99.90
44775;DHT22;31340;51.402;0.016;2023-04-01T07:10:28;11.20;99.90
44775;DHT22;31340;51.402;0.016;2023-04-01T07:13:49;11.20;99.90
44775;DHT22;31340;51.402;0.016;2023-04-01T07:16:48;11.20;99.90
44775;DHT22;31340;51.402;0.016;2023-04-01T07:19:26;11.20;99.90
44775;DHT22;31340;51.402;0.016;2023-04-01T07:25:25;11.20;99.90
44775;DHT22;31340;51.402;0.016;2023-04-01T07:28:15;11.30;99.90
44775;DHT22;31340;51.402;0.016;2023-04-01T07:36:39;11.30;99.90
44775;DHT22;31340;51.402;0.016;2023-04-01T07:42:36;11.40;99.90
44775;DHT22;31340;51.402;0.016;2023-04-01T07:48:18;11.40;99.90
44775;DHT22;31340;51.402;0.016;2023-04-01T07:56:49;11.40;99.90
44775;DHT22;31340;51.402;0.016;2023-04-01T07:59:43;11.40;99.90
44775;DHT22;31340;51.402;0.016;2023-04-01T08:08:06;11.40;99.90
44775;DHT22;31340;51.402;0.016;2023-04-01T08:23:24;11.40;99.90
44775;DHT22;31340;51.402;0.016;2023-04-01T08:28:49;11.40;99.90
44775;DHT22;31340;51.402;0.016;2023-04-01T08:34:27;11.40;99.90
44775;DHT22;31340;51.402;0.016;2023-04-01T08:37:11;11.40;99.90
44775;DHT22;31340;51.402;0.016;2023-04-01T08:39:50;11.40;99.90
44775;DHT22;31340;51.402;0.016;2023-04-01T08:42:31;11.50;99.90
44775;DHT22;31340;51.402;0.016;2023-04-01T08:54:12;11.60;99.90
44775;DHT22;31340;51.402;0.016;2023-04-01T08:57:21;11.60;99.90
44775;DHT22;31340;51.402;0.016;2023-04-01T09:12:30;11.80;99.90
44775;DHT22;31340;51.402;0.016;2023-04-01T09:23:40;12.00;99.90
44775;DHT22;31340;51.402;0.016;2023-04-01T09:26:21;11.90;99.90
44775;DHT22;31340;51.402;0.016;2023-04-01T09:37:29;12.00;99.90
44775;DHT22;31340;51.402;0.016;2023-04-01T09:43:21;12.00;99.90
44775;DHT22;31340;51.402;0.016;2023-04-01T09:46:16;12.00;99.90
44775;DHT22;31340;51.402;0.016;2023-04-01T09:58:06;12.10;99.90
44775;DHT22;31340;51.402;0.016;2023-04-01T10:12:04;12.20;99.90
44775;DHT22;31340;51.402;0.016;2023-04-01T10:26:28;12.30;99.90
44775;DHT22;31340;51.402;0.016;2023-04-01T10:32:32;12.40;99.90
44775;DHT22;31340;51.402;0.016;2023-04-01T10:35:29;12.40;99.90
44775;DHT22;31340;51.402;0.016;2023-04-01T10:38:27;12.50;99.90
44775;DHT22;31340;51.402;0.016;2023-04-01T10:52:40;12.60;99.90
44775;DHT22;31340;51.402;0.016;2023-04-01T11:27:02;12.80;99.90
44775;DHT22;31340;51.402;0.016;2023-04-01T11:32:50;12.80;99.90
44775;DHT22;31340;51.402;0.016;2023-04-01T11:35:24;12.70;99.90
44775;DHT22;31340;51.402;0.016;2023-04-01T11:38:13;12.80;99.90
44775;DHT22;31340;51.402;0.016;2023-04-01T11:41:13;12.80;99.90
44775;DHT22;31340;51.402;0.016;2023-04-01T11:44:26;12.80;99.90
44775;DHT22;31340;51.402;0.016;2023-04-01T12:07:02;13.00;99.90
44775;DHT22;31340;51.402;0.016;2023-04-01T12:15:13;13.00;99.90
44775;DHT22;31340;51.402;0.016;2023-04-01T12:20:51;13.10;99.90
44775;DHT22;31340;51.402;0.016;2023-04-01T12:23:48;13.20;99.90
44775;DHT22;31340;51.402;0.016;2023-04-01T12:26:40;13.20;99.90
44775;DHT22;31340;51.402;0.016;2023-04-01T12:32:09;13.40;99.90
44775;DHT22;31340;51.402;0.016;2023-04-01T12:38:15;13.40;99.90
44775;DHT22;31340;51.402;0.016;2023-04-01T12:40:57;13.40;99.90
44775;DHT22;31340;51.402;0.016;2023-04-01T13:11:57;13.50;99.90
44775;DHT22;31340;51.402;0.016;2023-04-01T13:14:44;13.50;99.90
44775;DHT22;31340;51.402;0.016;2023-04-01T13:26:29;13.70;99.90
44775;DHT22;31340;51.402;0.016;2023-04-01T13:29:10;13.80;99.90
44775;DHT22;31340;51.402;0.016;2023-04-01T13:37:32;14.20;99.90
44775;DHT22;31340;51.402;0.016;2023-04-01T13:42:47;14.40;99.90
44775;DHT22;31340;51.402;0.016;2023-04-01T13:46:03;14.40;99.90
44775;DHT22;31340;51.402;0.016;2023-04-01T13:48:32;14.50;99.90
44775;DHT22;31340;51.402;0.016;2023-04-01T14:08:08;14.90;99.90
44775;DHT22;31340;51.402;0.016;2023-04-01T14:19:49;15.10;99.90
44775;DHT22;31340;51.402;0.016;2023-04-01T14:22:40;15.10;99.90
44775;DHT22;31340;51.402;0.016;2023-04-01T14:31:27;15.30;99.90
44775;DHT22;31340;51.402;0.016;2023-04-01T14:39:43;15.30;99.70
44775;DHT22;31340;51.402;0.016;2023-04-01T14:42:54;15.30;99.50
44775;DHT22;31340;51.402;0.016;2023-04-01T14:49:04;15.30;99.40
44775;DHT22;31340;51.402;0.016;2023-04-01T14:51:39;15.20;99.00
44775;DHT22;31340;51.402;0.016;2023-04-01T14:54:21;15.20;99.10
44775;DHT22;31340;51.402;0.016;2023-04-01T14:57:26;15.20;99.00
44775;DHT22;31340;51.402;0.016;2023-04-01T15:00:13;15.10;98.80
44775;DHT22;31340;51.402;0.016;2023-04-01T15:03:08;15.10;99.00
44775;DHT22;31340;51.402;0.016;2023-04-01T15:05:52;15.10;98.90
44775;DHT22;31340;51.402;0.016;2023-04-01T15:08:26;15.10;99.00
44775;DHT22;31340;51.402;0.016;2023-04-01T15:24:24;14.80;98.80
44775;DHT22;31340;51.402;0.016;2023-04-01T15:32:44;14.60;98.90
44775;DHT22;31340;51.402;0.016;2023-04-01T15:35:57;14.50;98.70
44775;DHT22;31340;51.402;0.016;2023-04-01T15:41:15;14.30;99.00
44775;DHT22;31340;51.402;0.016;2023-04-01T15:43:48;14.30;99.10
44775;DHT22;31340;51.402;0.016;2023-04-01T15:46:50;14.20;99.20
44775;DHT22;31340;51.402;0.016;2023-04-01T15:49:43;14.20;99.30
44775;DHT22;31340;51.402;0.016;2023-04-01T15:52:19;14.10;99.30
44775;DHT22;31340;51.402;0.016;2023-04-01T16:00:41;13.90;99.40
44775;DHT22;31340;51.402;0.016;2023-04-01T16:17:29;13.60;99.50
44775;DHT22;31340;51.402;0.016;2023-04-01T16:20:43;13.60;99.50
44775;DHT22;31340;51.402;0.016;2023-04-01T16:26:25;13.50;99.70
44775;DHT22;31340;51.402;0.016;2023-04-01T16:32:05;13.40;99.90
44775;DHT22;31340;51.402;0.016;2023-04-01T16:34:47;13.30;99.90
44775;DHT22;31340;51.402;0.016;2023-04-01T16:37:37;13.30;99.90
44775;DHT22;31340;51.402;0.016;2023-04-01T16:43:21;13.10;99.90
44775;DHT22;31340;51.402;0.016;2023-04-01T16:46:23;13.00;99.90
44775;DHT22;31340;51.402;0.016;2023-04-01T16:49:17;13.00;99.90
44775;DHT22;31340;51.402;0.016;2023-04-01T16:54:50;12.90;99.90
44775;DHT22;31340;51.402;0.016;2023-04-01T17:02:38;12.70;99.90
44775;DHT22;31340;51.402;0.016;2023-04-01T17:05:11;12.70;99.90
44775;DHT22;31340;51.402;0.016;2023-04-01T17:13:29;12.60;99.90
44775;DHT22;31340;51.402;0.016;2023-04-01T17:16:30;12.50;99.90
44775;DHT22;31340;51.402;0.016;2023-04-01T17:27:47;12.40;99.90
44775;DHT22;31340;51.402;0.016;2023-04-01T17:30:41;12.30;99.90
44775;DHT22;31340;51.402;0.016;2023-04-01T17:35:53;12.30;99.90
44775;DHT22;31340;51.402;0.016;2023-04-01T17:44:28;12.30;99.90
44775;DHT22;31340;51.402;0.016;2023-04-01T17:47:13;12.30;99.90
44775;DHT22;31340;51.402;0.016;2023-04-01T17:52:40;12.20;99.90
44775;DHT22;31340;51.402;0.016;2023-04-01T17:58:16;12.20;99.90
44775;DHT22;31340;51.402;0.016;2023-04-01T18:06:34;12.20;99.90
44775;DHT22;31340;51.402;0.016;2023-04-01T18:09:31;12.10;99.90
44775;DHT22;31340;51.402;0.016;2023-04-01T18:15:09;12.10;99.90
44775;DHT22;31340;51.402;0.016;2023-04-01T18:17:49;12.10;99.90
44775;DHT22;31340;51.402;0.016;2023-04-01T18:26:13;12.00;99.90
44775;DHT22;31340;51.402;0.016;2023-04-01T18:31:51;12.00;99.90
44775;DHT22;31340;51.402;0.016;2023-04-01T18:40:17;11.90;99.90
44775;DHT22;31340;51.402;0.016;2023-04-01T18:45:57;11.80;99.90
44775;DHT22;31340;51.402;0.016;2023-04-01T18:49:14;11.90;99.90
44775;DHT22;31340;51.402;0.016;2023-04-01T18:51:53;11.90;99.90
44775;DHT22;31340;51.402;0.016;2023-04-01T18:54:30;11.80;99.90
44775;DHT22;31340;51.402;0.016;2023-04-01T18:57:19;11.80;99.90
44775;DHT22;31340;51.402;0.016;2023-04-01T18:59:55;11.80;99.90
44775;DHT22;31340;51.402;0.016;2023-04-01T19:02:40;11.80;99.90
44775;DHT22;31340;51.402;0.016;2023-04-01T19:05:23;11.90;99.90
44775;DHT22;31340;51.402;0.016;2023-04-01T19:07:55;11.80;99.90
44775;DHT22;31340;51.402;0.016;2023-04-01T19:13:40;11.80;99.90
44775;DHT22;31340;51.402;0.016;2023-04-01T19:16:49;11.80;99.90
44775;DHT22;31340;51.402;0.016;2023-04-01T19:31:01;11.70;99.90
44775;DHT22;31340;51.402;0.016;2023-04-01T19:36:32;11.80;99.90
44775;DHT22;31340;51.402;0.016;2023-04-01T19:50:20;11.50;99.90
44775;DHT22;31340;51.402;0.016;2023-04-01T19:52:51;11.40;99.90
44775;DHT22;31340;51.402;0.016;2023-04-01T19:55:39;11.40;99.90
44775;DHT22;31340;51.402;0.016;2023-04-01T20:00:51;11.30;99.90
44775;DHT22;31340;51.402;0.016;2023-04-01T20:06:20;11.20;99.90
44775;DHT22;31340;51.402;0.016;2023-04-01T20:11:52;11.20;99.90
44775;DHT22;31340;51.402;0.016;2023-04-01T20:14:43;11.20;99.90
44775;DHT22;31340;51.402;0.016;2023-04-01T20:25:17;11.00;99.90
44775;DHT22;31340;51.402;0.016;2023-04-01T20:27:51;11.00;99.90
44775;DHT22;31340;51.402;0.016;2023-04-01T20:47:42;10.80;99.90
44775;DHT22;31340;51.402;0.016;2023-04-01T20:50:36;10.80;99.90
44775;DHT22;31340;51.402;0.016;2023-04-01T20:53:28;10.80;99.90
44775;DHT22;31340;51.402;0.016;2023-04-01T20:56:21;10.80;99.90
44775;DHT22;31340;51.402;0.016;2023-04-01T20:59:22;10.80;99.90
44775;DHT22;31340;51.402;0.016;2023-04-01T21:02:32;10.80;99.90
44775;DHT22;31340;51.402;0.016;2023-04-01T21:26:19;10.60;99.90
44775;DHT22;31340;51.402;0.016;2023-04-01T21:31:25;10.60;99.90
44775;DHT22;31340;51.402;0.016;2023-04-01T21:40:00;10.50;99.90
44775;DHT22;31340;51.402;0.016;2023-04-01T21:48:17;10.50;99.90
44775;DHT22;31340;51.402;0.016;2023-04-01T21:53:56;10.40;99.90
44775;DHT22;31340;51.402;0.016;2023-04-01T22:07:46;10.40;99.90
44775;DHT22;31340;51.402;0.016;2023-04-01T22:10:30;10.40;99.90
44775;DHT22;31340;51.402;0.016;2023-04-01T22:16:00;10.40;99.90
44775;DHT22;31340;51.402;0.016;2023-04-01T22:26:37;10.40;99.90
44775;DHT22;31340;51.402;0.016;2023-04-01T22:32:31;10.30;99.90
44775;DHT22;31340;51.402;0.016;2023-04-01T22:37:34;10.30;99.90
44775;DHT22;31340;51.402;0.016;2023-04-01T22:40:15;10.30;99.90
44775;DHT22;31340;51.402;0.016;2023-04-01T22:42:54;10.40;99.90
44775;DHT22;31340;51.402;0.016;2023-04-01T22:46:03;10.40;99.90
44775;DHT22;31340;51.402;0.016;2023-04-01T22:48:44;10.40;99.90
44775;DHT22;31340;51.402;0.016;2023-04-01T22:54:14;10.40;99.90
44775;DHT22;31340;51.402;0.016;2023-04-01T22:57:02;10.40;99.90
44775;DHT22;31340;51.402;0.016;2023-04-01T23:02:15;10.40;99.90
44775;DHT22;31340;51.402;0.016;2023-04-01T23:04:49;10.40;99.90
44775;DHT22;31340;51.402;0.016;2023-04-01T23:09:56;10.40;99.90
44775;DHT22;31340;51.402;0.016;2023-04-01T23:12:26;10.40;99.90
44775;DHT22;31340;51.402;0.016;2023-04-01T23:14:58;10.40;99.90
44775;DHT22;31340;51.402;0.016;2023-04-01T23:17:34;10.40;99.90
44775;DHT22;31340;51.402;0.016;2023-04-01T23:25:57;10.30;99.90
44775;DHT22;31340;51.402;0.016;2023-04-01T23:28:44;10.30;99.90
44775;DHT22;31340;51.402;0.016;2023-04-01T23:36:51;10.30;99.90
44775;DHT22;31340;51.402;0.016;2023-04-01T23:39:33;10.20;99.90
44775;DHT22;31340;51.402;0.016;2023-04-01T23:42:06;10.20;99.90
44775;DHT22;31340;51.402;0.016;2023-04-01T23:44:35;10.20;99.90
44775;DHT22;31340;51.402;0.016;2023-04-01T23:47:04;10.20;99.90
44775;DHT22;31340;51.402;0.016;2023-04-01T23:49:40;10.20;99.90
44775;DHT22;31340;51.402;0.016;2023-04-01T23:52:22;10.20;99.90
